Latest Weather Observations for Forrest

IDW60801

Issued at 2:35 pm WST Wednesday 20 August 2014 (issued every 30 minutes, with the page automatically refreshed every 10 minutes)

About weather observations | Map of weather stations | Latest weather observations for WA | Other Formats
Station Details ID: 011052 Name: FORREST Lat: -30.85 Lon: 128.11 Height: 159.0 m
Data from the previous 72 hours. | See also: Recent months at Forrest
Date/Time
WST
Temp
°C
App
Temp
°C
Dew
Point
Rel
Hum
%
Delta-T
°C
Wind Press
QNH
hPa
Press
MSL
hPa
Rain
since 9 am
mm
Dir
 
Spd
km/h
Gust
km/h
Spd
kts
Gust
kts
20/02:31pm 25.1 18.9 -5.2 13 12.7 NE 19 32 10 17 1016.0 - 0.0
20/02:01pm 25.3 18.9 -5.1 13 12.8 ENE 20 28 11 15 1016.2 - 0.0
20/01:31pm 24.6 17.4 -5.6 13 12.6 E 24 35 13 19 1016.3 - 0.0
20/01:01pm 24.7 17.5 -5.5 13 12.6 NE 24 39 13 21 1016.5 - 0.0
20/12:31pm 24.6 17.9 -4.6 14 12.4 ENE 22 35 12 19 1016.9 - 0.0
20/12:01pm 24.5 17.7 -4.7 14 12.3 ENE 22 32 12 17 1017.4 - 0.0
20/12:00pm 24.5 17.7 -4.7 14 12.3 ENE 22 - 12 - - 1017.5 -
20/11:31am 23.4 16.7 -3.8 16 11.6 ENE 22 28 12 15 1018.1 - 0.0
20/11:01am 23.1 16.6 -2.5 18 11.1 ENE 22 28 12 15 1018.6 - 0.0
20/10:31am 21.4 15.4 -1.8 21 10.1 ENE 20 28 11 15 1019.1 - 0.0
20/10:01am 20.4 14.0 -1.4 23 9.5 NE 22 28 12 15 1019.6 - 0.0
20/09:31am 18.9 12.2 -1.0 26 8.6 NE 24 32 13 17 1020.0 - 0.0
20/09:01am 17.0 10.3 -1.1 29 7.7 NE 24 30 13 16 1020.2 - 0.0
20/09:00am 17.0 10.3 -1.1 29 7.6 NE 24 - 13 - - 1020.2 0.0
20/08:31am 15.7 8.6 -0.9 32 7.0 NE 26 32 14 17 1020.4 - 0.0
20/08:01am 14.6 8.0 -0.7 35 6.4 NE 24 32 13 17 1020.6 - 0.0
20/07:31am 12.4 6.2 -0.5 41 5.3 ENE 22 30 12 16 1020.5 - 0.0
20/07:01am 10.3 5.0 -0.5 47 4.3 ENE 17 20 9 11 1020.3 - 0.0
20/06:31am 7.4 2.4 -1.0 55 3.2 ENE 15 17 8 9 1020.1 - 0.0
20/06:01am 7.1 2.0 -1.6 54 3.3 ENE 15 17 8 9 1019.7 - 0.0
20/06:00am 7.1 2.0 -1.6 54 3.3 ENE 15 - 8 - - 1019.7 -
20/05:31am 8.3 2.9 -1.2 51 3.7 ENE 17 20 9 11 1019.3 - 0.0
20/05:01am 8.6 3.2 -1.2 50 3.8 ENE 17 19 9 10 1019.1 - 0.0
20/04:31am 9.1 3.7 -1.0 49 4.0 ENE 17 20 9 11 1019.1 - 0.0
20/04:01am 9.4 4.1 -0.8 49 4.0 ENE 17 20 9 11 1018.9 - 0.0
20/03:31am 9.4 4.0 -1.0 48 4.1 ENE 17 20 9 11 1019.1 - 0.0
20/03:01am 8.2 3.2 -1.3 51 3.7 ENE 15 17 8 9 1019.0 - 0.0
20/03:00am 8.2 3.2 -1.3 51 3.7 ENE 15 - 8 - - 1019.0 0.0
20/02:31am 8.7 4.1 -1.4 49 3.9 ENE 13 15 7 8 1019.2 - 0.0
20/02:01am 10.4 5.5 -0.7 46 4.4 ENE 15 17 8 9 1019.3 - 0.0
20/01:31am 10.9 6.4 -0.5 45 4.6 E 13 15 7 8 1019.4 - 0.0
20/01:01am 11.7 7.2 -0.1 44 4.9 E 13 17 7 9 1019.4 - 0.0
20/12:31am 12.4 7.2 -0.1 42 5.2 E 17 19 9 10 1019.8 - 0.0
20/12:01am 12.4 7.2 -0.1 42 5.2 ENE 17 20 9 11 1019.8 - 0.0
20/12:00am 12.4 7.2 -0.1 42 5.2 E 17 - 9 - - 1019.8 -
 
Date/Time
WST
Temp
°C
App
Temp
°C
Dew
Point
Rel
Hum
%
Delta-T
°C
Wind Press
QNH
hPa
Press
MSL
hPa
Rain
since 9 am
mm
Dir
 
Spd
km/h
Gust
km/h
Spd
kts
Gust
kts
19/11:31pm 12.9 8.9 0.3 42 5.3 SE 11 17 6 9 1020.0 - 0.0
19/11:01pm 13.0 7.6 -1.0 38 5.7 E 17 20 9 11 1020.0 - 0.0
19/10:31pm 13.0 7.9 -1.7 36 5.9 E 15 19 8 10 1020.2 - 0.0
19/10:01pm 13.4 8.6 -2.9 32 6.4 E 13 17 7 9 1020.3 - 0.0
19/09:31pm 13.9 7.9 -3.4 30 6.8 E 19 24 10 13 1020.2 - 0.0
19/09:01pm 13.2 7.1 -3.5 31 6.5 E 19 22 10 12 1020.0 - 0.0
19/09:00pm 13.2 7.1 -3.5 31 6.4 E 19 - 10 - - 1020.0 0.0
19/08:31pm 12.0 6.7 -3.8 33 6.0 ENE 15 17 8 9 1020.1 - 0.0
19/08:01pm 11.7 6.3 -4.4 32 6.0 E 15 17 8 9 1020.0 - 0.0
19/07:31pm 13.1 7.7 -4.1 30 6.6 E 15 15 8 8 1019.9 - 0.0
19/07:01pm 14.3 9.3 -4.4 27 7.2 E 13 15 7 8 1019.7 - 0.0
19/06:31pm 15.5 10.1 -4.4 25 7.7 E 15 19 8 10 1019.3 - 0.0
19/06:01pm 15.5 9.7 -4.4 25 7.7 E 17 19 9 10 1019.3 - 0.0
19/06:00pm 15.5 9.7 -4.4 25 7.7 E 17 - 9 - - 1019.3 -
19/05:31pm 16.6 11.2 -4.6 23 8.3 ENE 15 17 8 9 1019.1 - 0.0
19/05:01pm 18.4 13.3 -4.9 20 9.2 E 13 15 7 8 1018.8 - 0.0
19/04:31pm 20.5 15.3 -6.1 16 10.5 ENE 13 15 7 8 1018.4 - 0.0
19/04:01pm 21.7 16.8 -6.9 14 11.3 NE 11 17 6 9 1018.3 - 0.0
19/03:31pm 23.3 18.3 -7.7 12 12.2 NNE 11 24 6 13 1017.9 - 0.0
19/03:01pm 23.3 18.7 -7.7 12 12.2 N 9 20 5 11 1017.8 - 0.0
19/03:00pm 23.3 18.7 -7.7 12 12.2 N 9 - 5 - - 1017.9 0.0
19/02:31pm 23.5 18.6 -7.5 12 12.3 NE 11 26 6 14 1018.0 - 0.0
19/02:01pm 24.1 19.6 -7.0 12 12.5 N 9 15 5 8 1018.4 - 0.0
19/01:31pm 23.1 18.2 -6.8 13 12.0 NE 11 19 6 10 1018.6 - 0.0
19/01:01pm 23.5 19.1 -5.5 14 12.0 NNW 9 24 5 13 1018.8 - 0.0
19/12:31pm 22.9 17.0 -6.0 14 11.7 NNE 17 28 9 15 1019.1 - 0.0
19/12:01pm 23.2 17.5 -4.0 16 11.5 N 17 28 9 15 1019.4 - 0.0
19/12:00pm 23.2 17.5 -4.0 16 11.5 N 17 - 9 - - 1019.4 -
19/11:31am 22.6 15.9 -4.5 16 11.3 NNW 22 30 12 16 1019.9 - 0.0
19/11:01am 21.8 15.2 -3.5 18 10.7 N 22 32 12 17 1020.5 - 0.0
19/10:31am 21.1 15.0 -2.0 21 10.0 N 20 26 11 14 1021.0 - 0.0
19/10:01am 20.1 14.4 -1.1 24 9.2 N 19 28 10 15 1021.4 - 0.0
19/09:31am 18.5 12.8 -0.8 27 8.3 N 19 26 10 14 1021.8 - 0.0
19/09:01am 16.0 10.3 -1.1 31 7.2 NNE 19 22 10 12 1022.2 - 0.0
19/09:00am 16.0 10.3 -1.1 31 7.1 NNE 19 - 10 - - 1022.3 0.0
19/08:31am 13.7 8.0 -0.7 37 6.0 NNE 19 20 10 11 1022.4 - 0.0
19/08:01am 12.0 6.9 0.5 45 4.8 NE 17 20 9 11 1022.5 - 0.0
19/07:31am 9.5 4.0 0.4 53 3.7 NE 19 22 10 12 1022.4 - 0.0
19/07:01am 6.4 2.9 1.1 69 2.1 ENE 9 13 5 7 1022.3 - 0.0
19/06:31am 3.6 -0.4 0.3 79 1.3 ENE 11 13 6 7 1022.1 - 0.0
19/06:01am 2.7 -1.8 -0.4 80 1.1 ENE 13 13 7 7 1021.9 - 0.0
19/06:00am 2.7 -1.8 -0.4 80 1.1 ENE 13 - 7 - - 1022.0 -
19/05:31am 3.0 -1.1 -0.5 78 1.3 ENE 11 13 6 7 1021.7 - 0.0
19/05:01am 3.3 -1.3 -0.9 74 1.5 E 13 13 7 7 1021.5 - 0.0
19/04:31am 3.9 -0.7 -0.7 72 1.7 ENE 13 15 7 8 1021.2 - 0.0
19/04:01am 4.8 -0.1 -0.4 69 2.0 ENE 15 15 8 8 1021.0 - 0.0
19/03:31am 5.5 1.0 -0.1 67 2.2 ENE 13 15 7 8 1021.0 - 0.0
19/03:01am 6.2 1.4 -0.1 64 2.4 ENE 15 19 8 10 1021.1 - 0.0
19/03:00am 6.2 1.4 -0.1 64 2.4 ENE 15 - 8 - - 1021.1 0.0
19/02:31am 6.5 1.7 0.0 63 2.5 ENE 15 19 8 10 1021.2 - 0.0
19/02:01am 7.1 1.9 -0.1 60 2.8 ENE 17 20 9 11 1021.1 - 0.0
19/01:31am 7.4 2.1 -0.3 58 3.0 ENE 17 20 9 11 1021.4 - 0.0
19/01:01am 7.7 2.0 -0.5 56 3.2 ENE 19 20 10 11 1021.7 - 0.0
19/12:31am 7.7 2.4 -0.8 55 3.3 ENE 17 20 9 11 1022.0 - 0.0
19/12:01am 6.8 1.7 -1.6 55 3.2 E 15 17 8 9 1022.1 - 0.0
19/12:00am 6.8 1.7 -1.6 55 3.1 E 15 - 8 - - 1022.2 -
 
Date/Time
WST
Temp
°C
App
Temp
°C
Dew
Point
Rel
Hum
%
Delta-T
°C
Wind Press
QNH
hPa
Press
MSL
hPa
Rain
since 9 am
mm
Dir
 
Spd
km/h
Gust
km/h
Spd
kts
Gust
kts
18/11:31pm 7.5 2.0 -2.0 51 3.6 ENE 17 20 9 11 1022.3 - 0.0
18/11:01pm 8.3 2.8 -2.0 48 3.9 E 17 19 9 10 1022.3 - 0.0
18/10:31pm 8.7 3.2 -2.0 47 4.1 E 17 19 9 10 1022.4 - 0.0
18/10:01pm 8.5 3.4 -2.1 47 4.0 NE 15 17 8 9 1022.6 - 0.0
18/09:31pm 8.3 3.1 -2.6 46 4.1 NE 15 15 8 8 1022.7 - 0.0
18/09:01pm 9.0 3.8 -2.6 44 4.4 ENE 15 15 8 8 1022.7 - 0.0
18/09:00pm 9.0 3.8 -2.6 44 4.4 ENE 15 - 8 - - 1022.8 0.0
18/08:31pm 10.2 5.0 -2.4 41 4.8 ENE 15 17 8 9 1022.7 - 0.0
18/08:01pm 10.8 5.2 -2.6 39 5.2 E 17 17 9 9 1022.5 - 0.0
18/07:31pm 11.8 6.6 -2.8 36 5.7 ENE 15 17 8 9 1022.3 - 0.0
18/07:01pm 12.4 7.2 -2.6 35 5.9 ENE 15 17 8 9 1022.1 - 0.0
18/06:31pm 13.8 8.6 -2.6 32 6.5 ENE 15 17 8 9 1021.8 - 0.0
18/06:01pm 14.2 8.6 -3.1 30 6.8 ENE 17 20 9 11 1021.5 - 0.0
18/06:00pm 14.2 8.6 -3.1 30 6.8 ENE 17 - 9 - - 1021.5 -
18/05:31pm 15.0 9.8 -2.9 29 7.2 NE 15 17 8 9 1021.4 - 0.0
18/05:01pm 16.2 11.4 -2.8 27 7.7 NE 13 15 7 8 1021.1 - 0.0
18/04:31pm 18.1 13.3 -2.8 24 8.6 NE 13 15 7 8 1020.9 - 0.0
18/04:01pm 19.8 15.3 -3.1 21 9.6 NE 11 19 6 10 1020.8 - 0.0
18/03:31pm 21.2 15.9 -3.3 19 10.3 NNE 15 20 8 11 1020.7 - 0.0
18/03:01pm 21.0 17.3 -4.2 18 10.4 ENE 6 15 3 8 1020.8 - 0.0
18/03:00pm 21.0 17.3 -4.2 18 10.4 ENE 6 - 3 - - 1020.8 0.0
18/02:31pm 20.0 15.1 -3.0 21 9.6 NNE 13 26 7 14 1021.0 - 0.0
18/02:01pm 20.5 15.6 -3.2 20 9.9 NNW 13 20 7 11 1021.2 - 0.0
18/01:31pm 21.1 15.8 -3.4 19 10.3 N 15 24 8 13 1021.5 - 0.0
18/01:01pm 20.9 15.4 -2.2 21 9.9 NNE 17 26 9 14 1021.6 - 0.0
18/12:31pm 21.0 15.1 -2.1 21 10.0 N 19 26 10 14 1022.1 - 0.0
18/12:01pm 20.3 15.3 -1.5 23 9.4 NNE 15 26 8 14 1022.6 - 0.0
18/12:00pm 20.3 15.3 -1.5 23 9.4 NNE 15 - 8 - - 1022.7 -
18/11:31am 20.1 15.1 -1.1 24 9.2 N 15 26 8 14 1023.1 - 0.0
18/11:01am 19.6 13.9 -0.4 26 8.8 NNE 19 30 10 16 1023.6 - 0.0
18/10:31am 19.4 13.5 1.9 31 8.1 N 22 30 12 16 1024.0 - 0.0
18/10:01am 17.9 11.3 2.2 35 7.2 N 26 35 14 19 1024.5 - 0.0
18/09:31am 17.2 10.4 3.1 39 6.5 N 28 33 15 18 1024.7 - 0.0
18/09:01am 15.7 8.6 3.5 44 5.6 N 30 35 16 19 1025.2 - 0.0
18/09:00am 15.7 8.6 3.5 44 5.6 N 30 - 16 - - 1025.2 0.0
18/08:31am 14.1 8.3 4.4 52 4.5 N 24 32 13 17 1025.2 - 0.0
18/08:01am 12.2 6.8 4.7 60 3.5 N 22 30 12 16 1025.4 - 0.0
18/07:31am 9.7 4.9 4.9 72 2.2 N 19 22 10 12 1025.3 - 0.0
18/07:01am 6.9 3.3 6.6 98 0.1 NNE 15 19 8 10 1025.2 - 0.0
18/06:31am 5.0 1.0 4.9 99 0.0 NNE 15 17 8 9 1024.9 - 0.0
18/06:01am 4.1 0.7 4.0 99 0.0 NNE 11 15 6 8 1024.6 - 0.0
18/06:00am 4.1 0.7 4.0 99 0.0 NNE 11 - 6 - - 1024.7 -
18/05:31am 4.3 0.6 4.2 99 0.0 NE 13 17 7 9 1024.3 - 0.0
18/05:01am 4.0 -0.2 3.7 98 0.1 NE 15 19 8 10 1024.0 - 0.0
18/04:31am 3.7 -0.2 3.4 98 0.1 NNE 13 15 7 8 1024.0 - 0.0
18/04:01am 3.7 -0.2 3.3 97 0.2 NNE 13 15 7 8 1023.8 - 0.0
18/03:31am 4.8 0.7 4.4 97 0.2 NE 15 17 8 9 1023.7 - 0.0
18/03:01am 4.8 1.1 4.4 97 0.2 NNE 13 15 7 8 1023.8 - 0.0
18/03:00am 4.8 1.1 4.4 97 0.2 NNE 13 - 7 - - 1023.9 0.0
18/02:31am 4.7 0.9 3.8 94 0.4 NNE 13 13 7 7 1023.8 - 0.0
18/02:01am 5.8 2.1 4.4 91 0.6 NNE 13 15 7 8 1024.0 - 0.0
18/01:31am 6.4 3.0 4.2 86 1.0 NNE 11 13 6 7 1023.9 - 0.0
18/01:01am 7.3 3.6 4.3 81 1.3 NE 13 15 7 8 1024.0 - 0.0
18/12:31am 7.9 3.7 3.8 75 1.8 NE 15 19 8 10 1024.1 - 0.0
18/12:01am 8.6 4.0 3.8 72 2.1 NE 17 20 9 11 1024.2 - 0.0
18/12:00am 8.6 4.0 3.8 72 2.1 NE 17 - 9 - - 1024.3 -
 
Date/Time
WST
Temp
°C
App
Temp
°C
Dew
Point
Rel
Hum
%
Delta-T
°C
Wind Press
QNH
hPa
Press
MSL
hPa
Rain
since 9 am
mm
Dir
 
Spd
km/h
Gust
km/h
Spd
kts
Gust
kts
17/11:31pm 9.2 4.2 3.8 69 2.4 NE 19 22 10 12 1024.2 - 0.0
17/11:01pm 9.4 4.3 3.2 65 2.7 NE 19 22 10 12 1024.5 - 0.0
17/10:31pm 8.4 3.3 0.6 58 3.2 ENE 17 20 9 11 1024.7 - 0.0
17/10:01pm 8.3 2.4 -1.0 52 3.6 E 20 28 11 15 1024.9 - 0.0
17/09:31pm 8.1 3.5 -1.4 51 3.7 NNE 13 15 7 8 1024.6 - 0.0
17/09:01pm 9.2 4.6 -1.2 48 4.1 NNE 13 17 7 9 1024.7 - 0.0
17/09:00pm 9.2 4.6 -1.2 48 4.0 NNE 13 - 7 - - 1024.8 0.0
17/08:31pm 9.7 5.8 -1.3 46 4.3 NNE 9 13 5 7 1024.7 - 0.0
17/08:01pm 10.5 6.3 -1.2 44 4.6 NE 11 15 6 8 1024.5 - 0.0
17/07:31pm 11.1 6.8 -1.3 42 4.9 N 11 15 6 8 1024.3 - 0.0
17/07:01pm 12.2 8.8 -0.6 41 5.2 NE 7 9 4 5 1024.2 - 0.0
17/06:31pm 12.9 9.5 -0.7 39 5.6 NE 7 9 4 5 1023.9 - 0.0
17/06:01pm 14.6 10.9 -0.3 36 6.3 NE 9 11 5 6 1023.5 - 0.0
17/06:00pm 14.6 10.9 -0.3 36 6.2 NE 9 - 5 - - 1023.6 -
17/05:31pm 16.1 12.8 0.3 34 6.8 NE 7 9 4 5 1023.3 - 0.0
17/05:01pm 17.3 14.9 -0.4 30 7.6 WSW 2 11 1 6 1023.0 - 0.0
17/04:31pm 19.1 15.9 -0.3 27 8.5 WSW 6 13 3 7 1022.8 - 0.0
17/04:01pm 19.7 16.5 -0.3 26 8.8 WSW 6 9 3 5 1022.6 - 0.0
17/03:31pm 19.7 16.0 0.2 27 8.7 S 9 15 5 8 1022.6 - 0.0
17/03:01pm 19.4 15.0 0.4 28 8.5 SSE 13 17 7 9 1022.6 - 0.0
17/03:00pm 19.4 15.0 0.4 28 8.4 SSE 13 - 7 - - 1022.7 0.0

Other Formats:

Comma delimited format used in spreadsheet applications
http://www.bom.gov.au/fwo/IDW60801/IDW60801.95646.axf

JavaScript Object Notation format (JSON) in row-major order
http://www.bom.gov.au/fwo/IDW60801/IDW60801.95646.json